sensor_id;sensor_type;location;lat;lon;timestamp;P1;durP1;ratioP1;P2;durP2;ratioP2
35530;SDS011;21637;53.352;-6.356;2023-04-24T00:00:10;15.75;;;12.13;;
35530;SDS011;21637;53.352;-6.356;2023-04-24T00:02:39;14.93;;;11.10;;
35530;SDS011;21637;53.352;-6.356;2023-04-24T00:05:06;15.38;;;11.90;;
35530;SDS011;21637;53.352;-6.356;2023-04-24T00:07:33;15.80;;;10.90;;
35530;SDS011;21637;53.352;-6.356;2023-04-24T00:10:00;15.85;;;11.73;;
35530;SDS011;21637;53.352;-6.356;2023-04-24T00:12:25;15.68;;;11.90;;
35530;SDS011;21637;53.352;-6.356;2023-04-24T00:14:52;15.73;;;12.93;;
35530;SDS011;21637;53.352;-6.356;2023-04-24T00:17:18;15.35;;;11.52;;
35530;SDS011;21637;53.352;-6.356;2023-04-24T00:19:45;17.80;;;12.52;;
35530;SDS011;21637;53.352;-6.356;2023-04-24T00:22:16;16.98;;;12.60;;
35530;SDS011;21637;53.352;-6.356;2023-04-24T00:24:42;16.55;;;12.50;;
35530;SDS011;21637;53.352;-6.356;2023-04-24T00:27:08;18.42;;;13.30;;
35530;SDS011;21637;53.352;-6.356;2023-04-24T00:29:34;17.02;;;12.48;;
35530;SDS011;21637;53.352;-6.356;2023-04-24T00:32:00;14.93;;;12.75;;
35530;SDS011;21637;53.352;-6.356;2023-04-24T00:34:25;18.23;;;11.93;;
35530;SDS011;21637;53.352;-6.356;2023-04-24T00:36:51;16.25;;;12.02;;
35530;SDS011;21637;53.352;-6.356;2023-04-24T00:39:20;15.63;;;11.65;;
35530;SDS011;21637;53.352;-6.356;2023-04-24T00:41:46;18.58;;;12.85;;
35530;SDS011;21637;53.352;-6.356;2023-04-24T00:44:13;16.52;;;12.07;;
35530;SDS011;21637;53.352;-6.356;2023-04-24T00:46:39;19.90;;;11.60;;
35530;SDS011;21637;53.352;-6.356;2023-04-24T00:49:05;14.70;;;11.40;;
35530;SDS011;21637;53.352;-6.356;2023-04-24T00:51:31;15.98;;;11.95;;
35530;SDS011;21637;53.352;-6.356;2023-04-24T00:54:01;13.80;;;11.13;;
35530;SDS011;21637;53.352;-6.356;2023-04-24T00:56:26;17.10;;;12.07;;
35530;SDS011;21637;53.352;-6.356;2023-04-24T00:58:52;13.07;;;10.68;;
35530;SDS011;21637;53.352;-6.356;2023-04-24T01:01:19;18.58;;;11.30;;
35530;SDS011;21637;53.352;-6.356;2023-04-24T01:03:46;19.45;;;12.48;;
35530;SDS011;21637;53.352;-6.356;2023-04-24T01:06:12;18.23;;;11.52;;
35530;SDS011;21637;53.352;-6.356;2023-04-24T01:08:39;18.30;;;11.55;;
35530;SDS011;21637;53.352;-6.356;2023-04-24T01:11:06;18.42;;;12.80;;
35530;SDS011;21637;53.352;-6.356;2023-04-24T01:13:32;15.65;;;11.52;;
35530;SDS011;21637;53.352;-6.356;2023-04-24T01:15:58;16.17;;;11.00;;
35530;SDS011;21637;53.352;-6.356;2023-04-24T01:18:25;18.77;;;11.88;;
35530;SDS011;21637;53.352;-6.356;2023-04-24T01:20:52;17.65;;;11.90;;
35530;SDS011;21637;53.352;-6.356;2023-04-24T01:23:21;15.57;;;10.95;;
35530;SDS011;21637;53.352;-6.356;2023-04-24T01:25:47;16.80;;;10.93;;
35530;SDS011;21637;53.352;-6.356;2023-04-24T01:28:14;15.88;;;10.68;;
35530;SDS011;21637;53.352;-6.356;2023-04-24T01:30:41;15.95;;;12.10;;
35530;SDS011;21637;53.352;-6.356;2023-04-24T01:33:06;24.48;;;12.43;;
35530;SDS011;21637;53.352;-6.356;2023-04-24T01:35:32;17.83;;;12.07;;
35530;SDS011;21637;53.352;-6.356;2023-04-24T01:37:59;18.17;;;12.88;;
35530;SDS011;21637;53.352;-6.356;2023-04-24T01:40:25;15.70;;;11.60;;
35530;SDS011;21637;53.352;-6.356;2023-04-24T01:42:51;15.70;;;11.05;;
35530;SDS011;21637;53.352;-6.356;2023-04-24T01:45:17;18.73;;;10.95;;
35530;SDS011;21637;53.352;-6.356;2023-04-24T01:47:43;16.58;;;12.00;;
35530;SDS011;21637;53.352;-6.356;2023-04-24T01:50:10;16.27;;;11.05;;
35530;SDS011;21637;53.352;-6.356;2023-04-24T01:52:36;16.77;;;10.95;;
35530;SDS011;21637;53.352;-6.356;2023-04-24T01:55:04;15.68;;;11.25;;
35530;SDS011;21637;53.352;-6.356;2023-04-24T01:57:32;15.80;;;11.70;;
35530;SDS011;21637;53.352;-6.356;2023-04-24T01:59:58;17.83;;;11.43;;
35530;SDS011;21637;53.352;-6.356;2023-04-24T02:02:23;16.27;;;10.82;;
35530;SDS011;21637;53.352;-6.356;2023-04-24T02:04:52;15.23;;;10.13;;
35530;SDS011;21637;53.352;-6.356;2023-04-24T02:07:19;14.00;;;8.10;;
35530;SDS011;21637;53.352;-6.356;2023-04-24T02:09:44;13.55;;;8.60;;
35530;SDS011;21637;53.352;-6.356;2023-04-24T02:12:10;14.63;;;9.90;;
35530;SDS011;21637;53.352;-6.356;2023-04-24T02:14:36;15.70;;;10.73;;
35530;SDS011;21637;53.352;-6.356;2023-04-24T02:17:01;13.73;;;9.77;;
35530;SDS011;21637;53.352;-6.356;2023-04-24T02:19:27;19.63;;;11.45;;
35530;SDS011;21637;53.352;-6.356;2023-04-24T02:21:53;17.48;;;11.38;;
35530;SDS011;21637;53.352;-6.356;2023-04-24T02:24:19;14.50;;;10.93;;
35530;SDS011;21637;53.352;-6.356;2023-04-24T02:26:44;19.33;;;9.63;;
35530;SDS011;21637;53.352;-6.356;2023-04-24T02:29:10;16.15;;;10.10;;
35530;SDS011;21637;53.352;-6.356;2023-04-24T02:31:36;16.35;;;10.10;;
35530;SDS011;21637;53.352;-6.356;2023-04-24T02:34:01;15.73;;;9.13;;
35530;SDS011;21637;53.352;-6.356;2023-04-24T02:36:27;12.45;;;8.38;;
35530;SDS011;21637;53.352;-6.356;2023-04-24T02:38:53;14.98;;;9.25;;
35530;SDS011;21637;53.352;-6.356;2023-04-24T02:41:19;12.60;;;9.05;;
35530;SDS011;21637;53.352;-6.356;2023-04-24T02:43:45;13.52;;;9.27;;
35530;SDS011;21637;53.352;-6.356;2023-04-24T02:46:10;19.45;;;9.95;;
35530;SDS011;21637;53.352;-6.356;2023-04-24T02:48:36;15.43;;;9.48;;
35530;SDS011;21637;53.352;-6.356;2023-04-24T02:51:02;13.85;;;8.80;;
35530;SDS011;21637;53.352;-6.356;2023-04-24T02:53:28;11.80;;;8.48;;
35530;SDS011;21637;53.352;-6.356;2023-04-24T02:55:55;15.80;;;9.35;;
35530;SDS011;21637;53.352;-6.356;2023-04-24T02:58:21;16.83;;;9.05;;
35530;SDS011;21637;53.352;-6.356;2023-04-24T03:00:47;14.38;;;8.88;;
35530;SDS011;21637;53.352;-6.356;2023-04-24T03:03:13;16.30;;;9.27;;
35530;SDS011;21637;53.352;-6.356;2023-04-24T03:05:40;11.80;;;8.07;;
35530;SDS011;21637;53.352;-6.356;2023-04-24T03:08:06;12.15;;;8.35;;
35530;SDS011;21637;53.352;-6.356;2023-04-24T03:10:31;14.38;;;8.95;;
35530;SDS011;21637;53.352;-6.356;2023-04-24T03:12:57;17.33;;;7.95;;
35530;SDS011;21637;53.352;-6.356;2023-04-24T03:15:23;11.15;;;6.97;;
35530;SDS011;21637;53.352;-6.356;2023-04-24T03:17:48;11.10;;;7.18;;
35530;SDS011;21637;53.352;-6.356;2023-04-24T03:20:14;12.55;;;7.80;;
35530;SDS011;21637;53.352;-6.356;2023-04-24T03:22:40;11.13;;;7.28;;
35530;SDS011;21637;53.352;-6.356;2023-04-24T03:25:06;11.45;;;7.25;;
35530;SDS011;21637;53.352;-6.356;2023-04-24T03:27:34;12.93;;;7.10;;
35530;SDS011;21637;53.352;-6.356;2023-04-24T03:30:00;15.77;;;8.05;;
35530;SDS011;21637;53.352;-6.356;2023-04-24T03:32:25;11.82;;;7.75;;
35530;SDS011;21637;53.352;-6.356;2023-04-24T03:34:51;11.82;;;7.20;;
35530;SDS011;21637;53.352;-6.356;2023-04-24T03:37:17;13.73;;;7.20;;
35530;SDS011;21637;53.352;-6.356;2023-04-24T03:39:43;11.40;;;6.93;;
35530;SDS011;21637;53.352;-6.356;2023-04-24T03:42:09;11.80;;;7.20;;
35530;SDS011;21637;53.352;-6.356;2023-04-24T03:44:35;14.55;;;7.38;;
35530;SDS011;21637;53.352;-6.356;2023-04-24T03:47:01;12.77;;;8.32;;
35530;SDS011;21637;53.352;-6.356;2023-04-24T03:49:27;13.50;;;7.50;;
35530;SDS011;21637;53.352;-6.356;2023-04-24T03:51:52;13.52;;;8.27;;
35530;SDS011;21637;53.352;-6.356;2023-04-24T03:54:19;15.73;;;9.07;;
35530;SDS011;21637;53.352;-6.356;2023-04-24T03:56:45;13.93;;;9.10;;
35530;SDS011;21637;53.352;-6.356;2023-04-24T03:59:10;13.43;;;9.00;;
35530;SDS011;21637;53.352;-6.356;2023-04-24T04:01:36;11.40;;;8.50;;
35530;SDS011;21637;53.352;-6.356;2023-04-24T04:04:03;13.40;;;8.07;;
35530;SDS011;21637;53.352;-6.356;2023-04-24T04:06:29;15.70;;;8.90;;
35530;SDS011;21637;53.352;-6.356;2023-04-24T04:08:58;12.82;;;7.65;;
35530;SDS011;21637;53.352;-6.356;2023-04-24T04:11:24;13.18;;;7.57;;
35530;SDS011;21637;53.352;-6.356;2023-04-24T04:13:50;11.40;;;8.02;;
35530;SDS011;21637;53.352;-6.356;2023-04-24T04:16:16;13.85;;;7.50;;
35530;SDS011;21637;53.352;-6.356;2023-04-24T04:18:42;13.77;;;7.90;;
35530;SDS011;21637;53.352;-6.356;2023-04-24T04:21:08;13.27;;;8.45;;
35530;SDS011;21637;53.352;-6.356;2023-04-24T04:23:34;14.48;;;8.27;;
35530;SDS011;21637;53.352;-6.356;2023-04-24T04:26:00;13.45;;;8.88;;
35530;SDS011;21637;53.352;-6.356;2023-04-24T04:28:26;14.50;;;7.90;;
35530;SDS011;21637;53.352;-6.356;2023-04-24T04:30:52;14.18;;;8.27;;
35530;SDS011;21637;53.352;-6.356;2023-04-24T04:33:22;12.23;;;8.25;;
35530;SDS011;21637;53.352;-6.356;2023-04-24T04:35:49;13.50;;;8.15;;
35530;SDS011;21637;53.352;-6.356;2023-04-24T04:38:17;17.88;;;4.97;;
35530;SDS011;21637;53.352;-6.356;2023-04-24T04:40:46;10.93;;;1.98;;
35530;SDS011;21637;53.352;-6.356;2023-04-24T04:48:54;2.70;;;1.35;;
35530;SDS011;21637;53.352;-6.356;2023-04-24T04:51:21;5.07;;;1.30;;
35530;SDS011;21637;53.352;-6.356;2023-04-24T04:53:57;3.53;;;1.80;;
35530;SDS011;21637;53.352;-6.356;2023-04-24T04:56:23;2.55;;;2.15;;
35530;SDS011;21637;53.352;-6.356;2023-04-24T04:58:49;7.80;;;2.50;;
35530;SDS011;21637;53.352;-6.356;2023-04-24T05:01:15;13.85;;;2.83;;
35530;SDS011;21637;53.352;-6.356;2023-04-24T05:03:41;5.53;;;3.70;;
35530;SDS011;21637;53.352;-6.356;2023-04-24T05:06:07;7.95;;;3.78;;
35530;SDS011;21637;53.352;-6.356;2023-04-24T05:08:32;10.45;;;4.47;;
35530;SDS011;21637;53.352;-6.356;2023-04-24T05:10:58;7.00;;;4.40;;
35530;SDS011;21637;53.352;-6.356;2023-04-24T05:13:24;12.10;;;4.18;;
35530;SDS011;21637;53.352;-6.356;2023-04-24T05:15:50;11.88;;;4.03;;
35530;SDS011;21637;53.352;-6.356;2023-04-24T05:18:16;12.48;;;5.07;;
35530;SDS011;21637;53.352;-6.356;2023-04-24T05:20:42;11.98;;;4.65;;
35530;SDS011;21637;53.352;-6.356;2023-04-24T05:23:09;16.05;;;4.85;;
35530;SDS011;21637;53.352;-6.356;2023-04-24T05:25:35;15.73;;;5.97;;
35530;SDS011;21637;53.352;-6.356;2023-04-24T05:28:01;16.98;;;6.00;;
35530;SDS011;21637;53.352;-6.356;2023-04-24T05:30:27;14.70;;;6.00;;
35530;SDS011;21637;53.352;-6.356;2023-04-24T05:32:53;13.65;;;5.45;;
35530;SDS011;21637;53.352;-6.356;2023-04-24T05:35:19;16.73;;;5.03;;
35530;SDS011;21637;53.352;-6.356;2023-04-24T05:37:44;15.98;;;4.72;;
35530;SDS011;21637;53.352;-6.356;2023-04-24T05:40:10;16.67;;;4.72;;
35530;SDS011;21637;53.352;-6.356;2023-04-24T05:42:36;19.33;;;4.35;;
35530;SDS011;21637;53.352;-6.356;2023-04-24T05:45:02;14.57;;;4.20;;
35530;SDS011;21637;53.352;-6.356;2023-04-24T05:47:29;21.45;;;4.57;;
35530;SDS011;21637;53.352;-6.356;2023-04-24T05:49:55;17.58;;;3.90;;
35530;SDS011;21637;53.352;-6.356;2023-04-24T05:52:20;12.75;;;3.88;;
35530;SDS011;21637;53.352;-6.356;2023-04-24T05:54:46;11.30;;;3.60;;
35530;SDS011;21637;53.352;-6.356;2023-04-24T05:57:12;17.98;;;3.83;;
35530;SDS011;21637;53.352;-6.356;2023-04-24T05:59:38;11.73;;;3.70;;
35530;SDS011;21637;53.352;-6.356;2023-04-24T06:02:04;11.13;;;3.60;;
35530;SDS011;21637;53.352;-6.356;2023-04-24T06:04:30;18.80;;;3.30;;
35530;SDS011;21637;53.352;-6.356;2023-04-24T06:06:56;10.80;;;3.38;;
35530;SDS011;21637;53.352;-6.356;2023-04-24T06:09:22;10.98;;;3.55;;
35530;SDS011;21637;53.352;-6.356;2023-04-24T06:11:48;11.90;;;3.30;;
35530;SDS011;21637;53.352;-6.356;2023-04-24T06:14:15;8.57;;;3.50;;
35530;SDS011;21637;53.352;-6.356;2023-04-24T06:16:42;13.48;;;3.60;;
35530;SDS011;21637;53.352;-6.356;2023-04-24T06:19:08;13.70;;;4.85;;
35530;SDS011;21637;53.352;-6.356;2023-04-24T06:21:33;11.50;;;3.95;;
35530;SDS011;21637;53.352;-6.356;2023-04-24T06:23:59;13.18;;;3.80;;
35530;SDS011;21637;53.352;-6.356;2023-04-24T06:26:25;13.32;;;4.25;;
35530;SDS011;21637;53.352;-6.356;2023-04-24T06:28:51;12.52;;;4.20;;
35530;SDS011;21637;53.352;-6.356;2023-04-24T06:31:19;14.85;;;4.85;;
35530;SDS011;21637;53.352;-6.356;2023-04-24T06:33:45;13.15;;;5.30;;
35530;SDS011;21637;53.352;-6.356;2023-04-24T06:36:11;10.60;;;4.20;;
35530;SDS011;21637;53.352;-6.356;2023-04-24T06:38:37;11.88;;;4.10;;
35530;SDS011;21637;53.352;-6.356;2023-04-24T06:41:03;8.57;;;3.53;;
35530;SDS011;21637;53.352;-6.356;2023-04-24T06:43:30;13.50;;;4.10;;
35530;SDS011;21637;53.352;-6.356;2023-04-24T06:45:57;12.63;;;3.95;;
35530;SDS011;21637;53.352;-6.356;2023-04-24T06:48:23;9.05;;;3.22;;
35530;SDS011;21637;53.352;-6.356;2023-04-24T06:50:50;10.68;;;4.03;;
35530;SDS011;21637;53.352;-6.356;2023-04-24T06:53:16;13.50;;;4.20;;
35530;SDS011;21637;53.352;-6.356;2023-04-24T06:55:42;8.93;;;3.40;;
35530;SDS011;21637;53.352;-6.356;2023-04-24T06:58:09;10.43;;;2.97;;
35530;SDS011;21637;53.352;-6.356;2023-04-24T07:00:36;8.98;;;3.15;;
35530;SDS011;21637;53.352;-6.356;2023-04-24T07:03:01;5.90;;;2.90;;
35530;SDS011;21637;53.352;-6.356;2023-04-24T07:05:28;5.18;;;2.42;;
35530;SDS011;21637;53.352;-6.356;2023-04-24T07:07:54;6.75;;;3.10;;
35530;SDS011;21637;53.352;-6.356;2023-04-24T07:10:20;9.52;;;2.70;;
35530;SDS011;21637;53.352;-6.356;2023-04-24T07:12:46;5.60;;;2.58;;
35530;SDS011;21637;53.352;-6.356;2023-04-24T07:15:12;7.70;;;2.60;;
35530;SDS011;21637;53.352;-6.356;2023-04-24T07:17:38;6.97;;;2.92;;
35530;SDS011;21637;53.352;-6.356;2023-04-24T07:20:07;7.90;;;2.70;;
35530;SDS011;21637;53.352;-6.356;2023-04-24T07:22:35;9.07;;;2.78;;
35530;SDS011;21637;53.352;-6.356;2023-04-24T07:25:02;10.45;;;3.28;;
35530;SDS011;21637;53.352;-6.356;2023-04-24T07:27:28;12.18;;;3.50;;
35530;SDS011;21637;53.352;-6.356;2023-04-24T07:29:54;9.77;;;3.38;;
35530;SDS011;21637;53.352;-6.356;2023-04-24T07:32:20;9.85;;;3.00;;
35530;SDS011;21637;53.352;-6.356;2023-04-24T07:34:45;6.43;;;3.20;;
35530;SDS011;21637;53.352;-6.356;2023-04-24T07:37:11;11.77;;;3.90;;
35530;SDS011;21637;53.352;-6.356;2023-04-24T07:39:37;10.65;;;3.53;;
35530;SDS011;21637;53.352;-6.356;2023-04-24T07:42:02;10.50;;;3.80;;
35530;SDS011;21637;53.352;-6.356;2023-04-24T07:44:28;10.77;;;3.28;;
35530;SDS011;21637;53.352;-6.356;2023-04-24T07:46:54;6.18;;;2.80;;
35530;SDS011;21637;53.352;-6.356;2023-04-24T07:49:20;7.28;;;2.88;;
35530;SDS011;21637;53.352;-6.356;2023-04-24T07:51:46;8.10;;;2.78;;
35530;SDS011;21637;53.352;-6.356;2023-04-24T07:54:12;9.38;;;2.75;;
35530;SDS011;21637;53.352;-6.356;2023-04-24T07:56:38;6.63;;;2.60;;
35530;SDS011;21637;53.352;-6.356;2023-04-24T07:59:04;6.38;;;2.65;;
35530;SDS011;21637;53.352;-6.356;2023-04-24T08:01:30;7.93;;;2.45;;
35530;SDS011;21637;53.352;-6.356;2023-04-24T08:03:56;8.60;;;2.72;;
35530;SDS011;21637;53.352;-6.356;2023-04-24T08:06:22;12.07;;;3.17;;
35530;SDS011;21637;53.352;-6.356;2023-04-24T08:08:48;11.75;;;3.45;;
35530;SDS011;21637;53.352;-6.356;2023-04-24T08:11:13;10.93;;;3.53;;
35530;SDS011;21637;53.352;-6.356;2023-04-24T08:13:39;10.95;;;3.85;;
35530;SDS011;21637;53.352;-6.356;2023-04-24T08:16:05;12.05;;;3.40;;
35530;SDS011;21637;53.352;-6.356;2023-04-24T08:18:30;11.68;;;2.92;;
35530;SDS011;21637;53.352;-6.356;2023-04-24T08:20:56;9.20;;;2.90;;
35530;SDS011;21637;53.352;-6.356;2023-04-24T08:23:26;13.95;;;3.83;;
35530;SDS011;21637;53.352;-6.356;2023-04-24T08:25:52;8.93;;;2.88;;
35530;SDS011;21637;53.352;-6.356;2023-04-24T08:28:18;12.00;;;3.03;;
35530;SDS011;21637;53.352;-6.356;2023-04-24T08:30:45;6.65;;;2.25;;
35530;SDS011;21637;53.352;-6.356;2023-04-24T08:33:19;9.32;;;2.40;;
35530;SDS011;21637;53.352;-6.356;2023-04-24T08:35:47;11.75;;;2.97;;
35530;SDS011;21637;53.352;-6.356;2023-04-24T08:38:12;6.75;;;2.70;;
35530;SDS011;21637;53.352;-6.356;2023-04-24T08:40:38;12.48;;;3.30;;
35530;SDS011;21637;53.352;-6.356;2023-04-24T08:43:04;9.55;;;2.75;;
35530;SDS011;21637;53.352;-6.356;2023-04-24T08:45:30;10.60;;;3.10;;
35530;SDS011;21637;53.352;-6.356;2023-04-24T08:47:58;7.43;;;2.15;;
35530;SDS011;21637;53.352;-6.356;2023-04-24T08:50:25;10.15;;;2.40;;
35530;SDS011;21637;53.352;-6.356;2023-04-24T08:52:51;5.95;;;2.70;;
35530;SDS011;21637;53.352;-6.356;2023-04-24T08:55:20;4.55;;;2.38;;
35530;SDS011;21637;53.352;-6.356;2023-04-24T08:57:49;8.38;;;2.65;;
35530;SDS011;21637;53.352;-6.356;2023-04-24T09:00:18;10.95;;;3.38;;
35530;SDS011;21637;53.352;-6.356;2023-04-24T09:02:49;12.02;;;2.60;;
35530;SDS011;21637;53.352;-6.356;2023-04-24T09:05:16;8.77;;;1.90;;
35530;SDS011;21637;53.352;-6.356;2023-04-24T09:07:44;9.93;;;2.70;;
35530;SDS011;21637;53.352;-6.356;2023-04-24T09:10:14;7.90;;;2.08;;
35530;SDS011;21637;53.352;-6.356;2023-04-24T09:12:41;6.25;;;2.20;;
35530;SDS011;21637;53.352;-6.356;2023-04-24T09:15:07;8.43;;;2.92;;
35530;SDS011;21637;53.352;-6.356;2023-04-24T09:17:34;9.93;;;2.03;;
35530;SDS011;21637;53.352;-6.356;2023-04-24T09:20:00;5.63;;;2.35;;
35530;SDS011;21637;53.352;-6.356;2023-04-24T09:22:29;6.72;;;2.10;;
35530;SDS011;21637;53.352;-6.356;2023-04-24T09:25:06;5.70;;;2.10;;
35530;SDS011;21637;53.352;-6.356;2023-04-24T09:27:34;6.55;;;2.05;;
35530;SDS011;21637;53.352;-6.356;2023-04-24T09:30:00;4.97;;;2.20;;
35530;SDS011;21637;53.352;-6.356;2023-04-24T09:32:27;5.35;;;1.90;;
35530;SDS011;21637;53.352;-6.356;2023-04-24T09:37:37;6.97;;;1.90;;
35530;SDS011;21637;53.352;-6.356;2023-04-24T09:40:08;6.65;;;2.33;;
35530;SDS011;21637;53.352;-6.356;2023-04-24T09:42:37;8.70;;;2.60;;
35530;SDS011;21637;53.352;-6.356;2023-04-24T09:45:03;9.60;;;2.70;;
35530;SDS011;21637;53.352;-6.356;2023-04-24T09:47:39;5.53;;;2.17;;
35530;SDS011;21637;53.352;-6.356;2023-04-24T09:50:09;6.85;;;2.03;;
35530;SDS011;21637;53.352;-6.356;2023-04-24T09:52:39;4.35;;;2.40;;
35530;SDS011;21637;53.352;-6.356;2023-04-24T09:55:16;5.20;;;1.75;;
35530;SDS011;21637;53.352;-6.356;2023-04-24T09:58:02;6.97;;;1.98;;
35530;SDS011;21637;53.352;-6.356;2023-04-24T10:00:33;3.30;;;1.90;;
35530;SDS011;21637;53.352;-6.356;2023-04-24T10:02:59;5.80;;;2.42;;
35530;SDS011;21637;53.352;-6.356;2023-04-24T10:05:27;8.95;;;2.13;;
35530;SDS011;21637;53.352;-6.356;2023-04-24T10:08:09;11.18;;;2.83;;
35530;SDS011;21637;53.352;-6.356;2023-04-24T10:10:40;7.10;;;2.33;;
35530;SDS011;21637;53.352;-6.356;2023-04-24T10:13:10;10.07;;;2.45;;
35530;SDS011;21637;53.352;-6.356;2023-04-24T10:15:37;8.05;;;2.45;;
35530;SDS011;21637;53.352;-6.356;2023-04-24T10:18:04;10.68;;;2.60;;
35530;SDS011;21637;53.352;-6.356;2023-04-24T10:20:31;8.98;;;2.53;;
35530;SDS011;21637;53.352;-6.356;2023-04-24T10:22:59;4.72;;;2.28;;
35530;SDS011;21637;53.352;-6.356;2023-04-24T10:25:26;5.90;;;2.85;;
35530;SDS011;21637;53.352;-6.356;2023-04-24T10:27:53;11.65;;;3.17;;
35530;SDS011;21637;53.352;-6.356;2023-04-24T10:30:24;7.28;;;2.30;;
35530;SDS011;21637;53.352;-6.356;2023-04-24T10:32:52;9.65;;;2.63;;
35530;SDS011;21637;53.352;-6.356;2023-04-24T10:35:18;5.22;;;1.70;;
35530;SDS011;21637;53.352;-6.356;2023-04-24T10:37:50;9.10;;;2.20;;
35530;SDS011;21637;53.352;-6.356;2023-04-24T10:40:29;6.28;;;2.40;;
35530;SDS011;21637;53.352;-6.356;2023-04-24T10:42:59;8.43;;;2.50;;
35530;SDS011;21637;53.352;-6.356;2023-04-24T10:45:28;7.13;;;2.30;;
35530;SDS011;21637;53.352;-6.356;2023-04-24T10:50:27;7.10;;;2.10;;
35530;SDS011;21637;53.352;-6.356;2023-04-24T10:53:04;5.78;;;1.83;;
35530;SDS011;21637;53.352;-6.356;2023-04-24T10:55:41;5.35;;;2.10;;
35530;SDS011;21637;53.352;-6.356;2023-04-24T10:58:09;8.95;;;2.05;;
35530;SDS011;21637;53.352;-6.356;2023-04-24T11:00:39;7.90;;;2.30;;
35530;SDS011;21637;53.352;-6.356;2023-04-24T11:03:06;8.90;;;2.67;;
35530;SDS011;21637;53.352;-6.356;2023-04-24T11:05:51;6.25;;;2.00;;
35530;SDS011;21637;53.352;-6.356;2023-04-24T11:08:27;6.03;;;1.92;;
35530;SDS011;21637;53.352;-6.356;2023-04-24T11:10:58;6.78;;;1.88;;
35530;SDS011;21637;53.352;-6.356;2023-04-24T11:13:25;7.28;;;2.08;;
35530;SDS011;21637;53.352;-6.356;2023-04-24T11:16:14;10.38;;;2.35;;
35530;SDS011;21637;53.352;-6.356;2023-04-24T11:19:10;9.73;;;2.63;;
35530;SDS011;21637;53.352;-6.356;2023-04-24T11:21:47;9.40;;;1.90;;
35530;SDS011;21637;53.352;-6.356;2023-04-24T11:24:24;7.40;;;1.80;;
35530;SDS011;21637;53.352;-6.356;2023-04-24T11:29:21;10.25;;;2.35;;
35530;SDS011;21637;53.352;-6.356;2023-04-24T11:31:46;10.65;;;2.30;;
35530;SDS011;21637;53.352;-6.356;2023-04-24T11:34:17;10.55;;;2.00;;
35530;SDS011;21637;53.352;-6.356;2023-04-24T11:39:27;8.05;;;2.20;;
35530;SDS011;21637;53.352;-6.356;2023-04-24T11:41:53;6.78;;;1.92;;
35530;SDS011;21637;53.352;-6.356;2023-04-24T11:44:26;6.55;;;2.10;;
35530;SDS011;21637;53.352;-6.356;2023-04-24T11:46:55;8.85;;;2.05;;
35530;SDS011;21637;53.352;-6.356;2023-04-24T11:49:21;5.53;;;1.90;;
35530;SDS011;21637;53.352;-6.356;2023-04-24T11:51:46;7.75;;;2.00;;
35530;SDS011;21637;53.352;-6.356;2023-04-24T11:54:12;7.07;;;1.73;;
35530;SDS011;21637;53.352;-6.356;2023-04-24T11:56:38;9.90;;;2.30;;
35530;SDS011;21637;53.352;-6.356;2023-04-24T11:59:04;8.25;;;2.38;;
35530;SDS011;21637;53.352;-6.356;2023-04-24T12:01:29;8.05;;;2.00;;
35530;SDS011;21637;53.352;-6.356;2023-04-24T12:04:08;8.93;;;2.17;;
35530;SDS011;21637;53.352;-6.356;2023-04-24T12:06:34;4.45;;;1.75;;
35530;SDS011;21637;53.352;-6.356;2023-04-24T12:08:59;5.45;;;2.00;;
35530;SDS011;21637;53.352;-6.356;2023-04-24T12:11:25;9.73;;;2.40;;
35530;SDS011;21637;53.352;-6.356;2023-04-24T12:13:51;8.35;;;2.47;;
35530;SDS011;21637;53.352;-6.356;2023-04-24T12:16:17;5.68;;;1.98;;
35530;SDS011;21637;53.352;-6.356;2023-04-24T12:18:43;8.23;;;1.85;;
35530;SDS011;21637;53.352;-6.356;2023-04-24T12:21:22;8.60;;;2.08;;
35530;SDS011;21637;53.352;-6.356;2023-04-24T12:23:53;5.38;;;1.98;;
35530;SDS011;21637;53.352;-6.356;2023-04-24T12:26:20;6.78;;;1.85;;
35530;SDS011;21637;53.352;-6.356;2023-04-24T12:28:48;5.78;;;1.90;;
35530;SDS011;21637;53.352;-6.356;2023-04-24T12:31:15;6.88;;;2.03;;
35530;SDS011;21637;53.352;-6.356;2023-04-24T12:33:41;6.45;;;1.80;;
35530;SDS011;21637;53.352;-6.356;2023-04-24T12:36:09;5.63;;;2.05;;
35530;SDS011;21637;53.352;-6.356;2023-04-24T12:38:37;5.65;;;1.80;;
35530;SDS011;21637;53.352;-6.356;2023-04-24T12:43:33;6.78;;;1.70;;
35530;SDS011;21637;53.352;-6.356;2023-04-24T12:45:59;6.82;;;1.90;;
35530;SDS011;21637;53.352;-6.356;2023-04-24T12:48:25;6.53;;;1.88;;
35530;SDS011;21637;53.352;-6.356;2023-04-24T12:50:52;7.75;;;2.30;;
35530;SDS011;21637;53.352;-6.356;2023-04-24T12:53:18;5.75;;;1.90;;
35530;SDS011;21637;53.352;-6.356;2023-04-24T12:55:44;7.28;;;1.92;;
35530;SDS011;21637;53.352;-6.356;2023-04-24T12:58:10;7.43;;;2.35;;
35530;SDS011;21637;53.352;-6.356;2023-04-24T13:00:36;4.95;;;1.90;;
35530;SDS011;21637;53.352;-6.356;2023-04-24T13:03:02;7.63;;;2.10;;
35530;SDS011;21637;53.352;-6.356;2023-04-24T13:05:28;6.85;;;2.08;;
35530;SDS011;21637;53.352;-6.356;2023-04-24T13:07:54;6.72;;;2.28;;
35530;SDS011;21637;53.352;-6.356;2023-04-24T13:10:19;4.20;;;1.45;;
35530;SDS011;21637;53.352;-6.356;2023-04-24T13:12:45;7.18;;;1.98;;
35530;SDS011;21637;53.352;-6.356;2023-04-24T13:15:11;7.20;;;1.83;;
35530;SDS011;21637;53.352;-6.356;2023-04-24T13:17:37;6.55;;;2.30;;
35530;SDS011;21637;53.352;-6.356;2023-04-24T13:20:04;4.63;;;1.98;;
35530;SDS011;21637;53.352;-6.356;2023-04-24T13:22:31;6.28;;;2.30;;
35530;SDS011;21637;53.352;-6.356;2023-04-24T13:24:57;8.38;;;1.90;;
35530;SDS011;21637;53.352;-6.356;2023-04-24T13:27:22;8.38;;;2.00;;
35530;SDS011;21637;53.352;-6.356;2023-04-24T13:29:48;4.90;;;1.65;;
35530;SDS011;21637;53.352;-6.356;2023-04-24T13:32:14;4.57;;;2.00;;
35530;SDS011;21637;53.352;-6.356;2023-04-24T13:34:40;6.15;;;1.63;;
35530;SDS011;21637;53.352;-6.356;2023-04-24T13:37:05;5.07;;;1.73;;
35530;SDS011;21637;53.352;-6.356;2023-04-24T13:39:32;7.43;;;2.08;;
35530;SDS011;21637;53.352;-6.356;2023-04-24T13:41:58;6.35;;;1.73;;
35530;SDS011;21637;53.352;-6.356;2023-04-24T13:44:24;7.55;;;2.10;;
35530;SDS011;21637;53.352;-6.356;2023-04-24T13:46:51;8.70;;;2.40;;
35530;SDS011;21637;53.352;-6.356;2023-04-24T13:49:19;9.50;;;1.70;;
35530;SDS011;21637;53.352;-6.356;2023-04-24T13:51:46;5.90;;;2.10;;
35530;SDS011;21637;53.352;-6.356;2023-04-24T13:54:12;7.90;;;2.10;;
35530;SDS011;21637;53.352;-6.356;2023-04-24T13:56:39;5.63;;;1.60;;
35530;SDS011;21637;53.352;-6.356;2023-04-24T13:59:05;6.45;;;2.03;;
35530;SDS011;21637;53.352;-6.356;2023-04-24T14:01:31;6.15;;;1.90;;
35530;SDS011;21637;53.352;-6.356;2023-04-24T14:03:57;6.10;;;2.20;;
35530;SDS011;21637;53.352;-6.356;2023-04-24T14:06:23;11.45;;;1.92;;
35530;SDS011;21637;53.352;-6.356;2023-04-24T14:08:49;9.93;;;1.95;;
35530;SDS011;21637;53.352;-6.356;2023-04-24T14:11:15;9.43;;;2.25;;
35530;SDS011;21637;53.352;-6.356;2023-04-24T14:13:42;4.88;;;1.83;;
35530;SDS011;21637;53.352;-6.356;2023-04-24T14:16:08;7.38;;;2.00;;
35530;SDS011;21637;53.352;-6.356;2023-04-24T14:18:35;8.65;;;2.00;;
35530;SDS011;21637;53.352;-6.356;2023-04-24T14:21:01;5.30;;;2.30;;
35530;SDS011;21637;53.352;-6.356;2023-04-24T14:23:28;5.22;;;1.70;;
35530;SDS011;21637;53.352;-6.356;2023-04-24T14:25:53;6.63;;;1.58;;
35530;SDS011;21637;53.352;-6.356;2023-04-24T14:28:20;8.80;;;1.70;;
35530;SDS011;21637;53.352;-6.356;2023-04-24T14:30:46;8.75;;;1.77;;
35530;SDS011;21637;53.352;-6.356;2023-04-24T14:33:13;3.83;;;1.80;;
35530;SDS011;21637;53.352;-6.356;2023-04-24T14:35:39;8.55;;;1.98;;
35530;SDS011;21637;53.352;-6.356;2023-04-24T14:38:07;9.40;;;2.08;;
35530;SDS011;21637;53.352;-6.356;2023-04-24T14:40:32;8.82;;;1.90;;
35530;SDS011;21637;53.352;-6.356;2023-04-24T14:42:58;6.32;;;1.88;;